Time;durP1;ratioP1;P1;durP2;ratioP2;P2;SDS_P1;SDS_P2;PMS_P1;PMS_P2;Temp;Humidity;BMP_temperature;BMP_pressure;BME280_temperature;BME280_humidity;BME280_pressure;Samples;Min_cycle;Max_cycle;Signal;HPM_P1;HPM_P2
2022/11/27 00:00:28;;;;;;;52.60;22.80;;;;;;;4.53;79.76;101648.91;10463299;28;20120;-79
2022/11/27 00:05:31;;;;;;;46.25;25.05;;;;;;;4.54;79.80;101633.78;10465631;28;20197;-79
2022/11/27 00:10:34;;;;;;;48.45;24.35;;;;;;;4.49;79.53;101628.63;10464384;28;20436;-79
2022/11/27 00:15:38;;;;;;;41.58;22.90;;;;;;;4.46;79.84;101626.06;10460019;28;20071;-79
2022/11/27 00:20:41;;;;;;;42.22;23.75;;;;;;;4.41;80.01;101617.38;10462892;28;20049;-78
2022/11/27 00:25:50;;;;;;;43.90;22.70;;;;;;;4.37;80.25;101599.81;10463727;28;20120;-78
2022/11/27 00:30:58;;;;;;;40.88;23.02;;;;;;;4.27;80.42;101601.06;10462570;28;20470;-79
2022/11/27 00:36:02;;;;;;;41.00;20.48;;;;;;;4.30;80.16;101590.31;10462447;28;20041;-79
2022/11/27 00:41:07;;;;;;;37.85;20.15;;;;;;;4.40;79.76;101591.72;10487372;28;20036;-80
2022/11/27 00:46:11;;;;;;;38.75;18.35;;;;;;;4.31;79.45;101594.72;10459851;28;20076;-79
2022/11/27 00:51:17;;;;;;;44.13;21.85;;;;;;;4.34;79.18;101584.81;10463335;28;20041;-79
2022/11/27 00:56:22;;;;;;;39.25;19.42;;;;;;;4.25;78.96;101585.16;10494731;28;20048;-78
2022/11/27 01:01:30;;;;;;;32.00;16.88;;;;;;;4.17;79.06;101581.91;10503957;28;20403;-79
2022/11/27 01:06:33;;;;;;;39.13;17.38;;;;;;;4.09;78.88;101574.19;10502878;28;20052;-80
2022/11/27 01:11:37;;;;;;;31.08;16.60;;;;;;;4.06;78.91;101582.28;10505778;28;20138;-79
2022/11/27 01:16:41;;;;;;;29.85;13.98;;;;;;;4.01;78.70;101570.94;10476023;28;20056;-79
2022/11/27 01:21:46;;;;;;;27.85;14.38;;;;;;;3.97;78.31;101557.78;10460449;28;20037;-79
2022/11/27 01:26:48;;;;;;;20.23;12.15;;;;;;;3.89;78.07;101555.38;10460415;28;20119;-79
2022/11/27 01:31:53;;;;;;;23.80;12.18;;;;;;;3.83;78.09;101550.28;10460216;28;20083;-78
2022/11/27 01:36:55;;;;;;;22.95;11.75;;;;;;;3.74;78.08;101554.13;10451664;28;20159;-79
2022/11/27 01:41:58;;;;;;;24.30;12.25;;;;;;;3.80;77.96;101545.94;10457914;28;20048;-79
2022/11/27 01:47:05;;;;;;;22.77;11.50;;;;;;;3.77;77.72;101564.66;10458787;28;20076;-79
2022/11/27 01:52:12;;;;;;;23.58;12.43;;;;;;;3.74;77.59;101559.44;10432372;28;20140;-79
2022/11/27 01:57:18;;;;;;;25.75;12.55;;;;;;;3.70;77.70;101555.13;10456302;28;20124;-80
2022/11/27 02:02:23;;;;;;;26.55;13.18;;;;;;;3.66;77.62;101543.75;10457313;28;20064;-78
2022/11/27 02:07:26;;;;;;;21.45;13.27;;;;;;;3.66;77.32;101546.41;10438431;28;20090;-78
2022/11/27 02:12:35;;;;;;;22.58;13.15;;;;;;;3.59;77.49;101533.38;10459118;28;20048;-78
2022/11/27 02:17:46;;;;;;;26.60;13.60;;;;;;;3.56;77.45;101539.66;10458327;28;20480;-79
2022/11/27 02:23:23;;;;;;;23.60;13.23;;;;;;;3.47;77.42;101519.59;10457038;28;20052;-79
2022/11/27 02:28:41;;;;;;;26.00;14.55;;;;;;;3.38;77.63;101509.28;10451845;28;20512;-79
2022/11/27 02:33:53;;;;;;;25.08;13.35;;;;;;;3.32;77.95;101503.28;10457939;28;20049;-78
2022/11/27 02:39:03;;;;;;;24.08;14.27;;;;;;;3.31;77.84;101504.22;10456801;28;20692;-80
2022/11/27 02:44:09;;;;;;;25.10;13.43;;;;;;;3.28;77.70;101490.09;10458037;28;20087;-80
2022/11/27 02:49:17;;;;;;;23.02;14.00;;;;;;;3.20;78.03;101486.84;10459541;28;20083;-80
2022/11/27 02:54:25;;;;;;;26.83;14.93;;;;;;;3.14;77.94;101476.41;10460142;28;20044;-81
2022/11/27 02:59:31;;;;;;;28.92;15.02;;;;;;;3.16;77.94;101463.97;10484513;28;20048;-81
2022/11/27 03:04:40;;;;;;;30.75;15.65;;;;;;;3.17;77.81;101459.53;10460352;28;20044;-80
2022/11/27 03:09:47;;;;;;;32.47;17.08;;;;;;;3.15;77.58;101461.34;10456649;28;20048;-80
2022/11/27 03:14:50;;;;;;;30.77;16.98;;;;;;;3.15;77.49;101458.69;10462134;28;20075;-79
2022/11/27 03:19:59;;;;;;;33.08;17.00;;;;;;;3.12;77.31;101461.47;10459948;28;20045;-80
2022/11/27 03:25:02;;;;;;;33.80;17.48;;;;;;;3.06;77.32;101467.84;10460241;28;20075;-80
2022/11/27 03:30:08;;;;;;;26.15;15.52;;;;;;;3.08;77.21;101460.69;10471139;28;20045;-79
2022/11/27 03:35:16;;;;;;;31.45;17.55;;;;;;;3.08;77.43;101455.38;10491601;28;20054;-79
2022/11/27 03:40:19;;;;;;;32.72;16.27;;;;;;;3.13;77.23;101447.28;10460875;28;20045;-79
2022/11/27 03:45:30;;;;;;;29.85;16.73;;;;;;;3.16;76.86;101447.19;10498586;28;20044;-80
2022/11/27 03:50:46;;;;;;;34.03;16.75;;;;;;;3.16;76.86;101439.22;10500946;28;20041;-80
2022/11/27 03:55:55;;;;;;;32.53;15.88;;;;;;;3.11;76.77;101439.34;10500079;28;20090;-80
2022/11/27 04:01:00;;;;;;;32.60;16.77;;;;;;;3.11;76.94;101418.13;10508520;28;20500;-80
2022/11/27 04:06:04;;;;;;;30.05;16.08;;;;;;;3.08;76.86;101412.06;10509113;28;20401;-80
2022/11/27 04:11:07;;;;;;;31.10;15.23;;;;;;;3.01;76.79;101409.56;10490851;28;20060;-80
2022/11/27 04:16:10;;;;;;;33.10;15.70;;;;;;;3.06;76.91;101428.00;10508012;28;20044;-80
2022/11/27 04:21:15;;;;;;;31.23;16.05;;;;;;;3.04;76.80;101422.78;10508344;28;20041;-80
2022/11/27 04:26:18;;;;;;;37.65;18.10;;;;;;;3.04;76.78;101409.50;10509921;28;20043;-79
2022/11/27 04:31:21;;;;;;;35.75;16.83;;;;;;;2.97;77.03;101410.59;10507305;28;20059;-80
2022/11/27 04:36:25;;;;;;;32.63;16.55;;;;;;;2.94;76.76;101413.38;10507204;28;20071;-80
2022/11/27 04:41:28;;;;;;;30.85;17.05;;;;;;;2.89;77.01;101402.03;10506436;28;20040;-80
2022/11/27 04:46:31;;;;;;;34.80;16.98;;;;;;;2.78;77.11;101410.34;10506942;28;20040;-80
2022/11/27 04:51:36;;;;;;;34.42;16.92;;;;;;;2.77;77.11;101403.31;10506618;28;20040;-79
2022/11/27 04:56:39;;;;;;;39.65;17.42;;;;;;;2.78;77.29;101397.06;10504925;28;20577;-79
2022/11/27 05:01:41;;;;;;;29.38;15.52;;;;;;;2.80;77.31;101386.41;10502954;28;20068;-80
2022/11/27 05:06:46;;;;;;;37.95;18.85;;;;;;;2.59;77.87;101385.31;10498328;22;20504;-77
2022/11/27 05:11:48;;;;;;;32.13;16.23;;;;;;;2.81;77.46;101382.84;10455103;28;20083;-75
2022/11/27 05:16:53;;;;;;;32.88;16.80;;;;;;;2.78;77.38;101367.03;10456215;28;20418;-75
2022/11/27 05:21:58;;;;;;;28.70;15.45;;;;;;;2.89;77.07;101361.34;10455093;28;20033;-77
2022/11/27 05:27:01;;;;;;;34.20;15.80;;;;;;;2.97;76.67;101359.31;10454995;28;20140;-77
2022/11/27 05:32:04;;;;;;;32.42;16.08;;;;;;;2.99;76.48;101347.72;10436389;28;20049;-77
2022/11/27 05:37:09;;;;;;;26.67;13.35;;;;;;;2.90;76.58;101355.13;10454176;28;20160;-75
2022/11/27 05:42:16;;;;;;;34.55;17.00;;;;;;;2.98;76.52;101347.75;10437482;28;20049;-77
2022/11/27 05:47:19;;;;;;;32.30;15.18;;;;;;;2.96;76.58;101354.91;10438208;28;20080;-77
2022/11/27 05:52:23;;;;;;;30.52;13.75;;;;;;;3.02;76.18;101355.59;10454534;28;20057;-77
2022/11/27 05:57:27;;;;;;;28.33;14.93;;;;;;;2.94;76.06;101347.00;10454215;28;20037;-77
2022/11/27 06:02:30;;;;;;;31.80;14.25;;;;;;;2.95;76.47;101338.13;10444269;28;20073;-77
2022/11/27 06:07:34;;;;;;;26.05;13.00;;;;;;;2.88;76.52;101326.00;10435960;28;20094;-77
2022/11/27 06:12:37;;;;;;;25.75;14.10;;;;;;;2.79;76.97;101321.84;10435201;28;20045;-77
2022/11/27 06:17:40;;;;;;;24.92;12.90;;;;;;;2.79;77.21;101326.28;10452308;28;20040;-76
2022/11/27 06:22:44;;;;;;;28.15;14.00;;;;;;;2.93;76.54;101323.16;10453279;28;20052;-77
2022/11/27 06:27:47;;;;;;;23.70;13.50;;;;;;;2.75;76.97;101309.59;10450941;28;20700;-77
2022/11/27 06:32:50;;;;;;;30.45;14.57;;;;;;;2.95;76.39;101300.09;10434683;28;20045;-77
2022/11/27 06:37:54;;;;;;;23.48;13.43;;;;;;;2.78;76.35;101304.19;10449926;28;20068;-77
2022/11/27 06:42:57;;;;;;;27.30;14.70;;;;;;;2.71;77.02;101285.88;10416758;28;20041;-76
2022/11/27 06:47:59;;;;;;;25.75;13.80;;;;;;;2.73;76.66;101284.91;10453510;28;20086;-77
2022/11/27 06:53:04;;;;;;;25.55;13.35;;;;;;;2.70;76.92;101270.88;10416692;28;20184;-77
2022/11/27 06:58:07;;;;;;;26.95;13.95;;;;;;;2.76;76.16;101281.28;10434948;28;20540;-77
2022/11/27 07:03:09;;;;;;;51.83;20.20;;;;;;;2.98;77.46;101287.56;10452887;28;20076;-77
2022/11/27 07:08:13;;;;;;;25.40;13.35;;;;;;;3.25;76.40;101288.38;10447852;28;20051;-76
2022/11/27 07:13:16;;;;;;;15.38;9.88;;;;;;;3.38;75.66;101288.81;10453616;28;20045;-77
2022/11/27 07:18:19;;;;;;;15.48;9.70;;;;;;;3.45;75.14;101282.34;10453580;28;20045;-77
2022/11/27 07:23:23;;;;;;;19.40;11.23;;;;;;;3.47;74.10;101282.28;10453027;28;20103;-77
2022/11/27 07:28:26;;;;;;;22.73;11.98;;;;;;;3.50;74.44;101272.41;10452926;28;20040;-77
2022/11/27 07:33:29;;;;;;;23.55;12.40;;;;;;;3.53;73.35;101270.56;10460898;28;20445;-77
2022/11/27 07:38:34;;;;;;;29.17;13.82;;;;;;;3.36;73.69;101280.03;10442439;28;20486;-77
2022/11/27 07:43:37;;;;;;;24.02;14.32;;;;;;;3.30;73.91;101261.66;10461100;28;20124;-77
2022/11/27 07:48:40;;;;;;;45.13;23.83;;;;;;;3.35;74.06;101257.06;10462228;28;20045;-77
2022/11/27 07:53:44;;;;;;;41.40;22.98;;;;;;;3.39;74.31;101253.34;10461473;28;20454;-77
2022/11/27 07:58:48;;;;;;;29.63;16.55;;;;;;;3.35;74.32;101259.72;10460455;28;20080;-77
2022/11/27 08:03:51;;;;;;;28.23;15.45;;;;;;;3.43;74.01;101252.31;10459522;28;20041;-76
2022/11/27 08:08:55;;;;;;;32.63;16.27;;;;;;;3.53;73.72;101247.50;10441076;28;20041;-77
2022/11/27 08:14:00;;;;;;;30.75;17.27;;;;;;;3.66;73.82;101254.09;10458625;28;20045;-77
2022/11/27 08:19:03;;;;;;;34.38;15.93;;;;;;;3.99;73.71;101260.81;10458437;28;20033;-76
2022/11/27 08:24:08;;;;;;;32.83;15.98;;;;;;;4.50;72.45;101233.91;10457788;28;20111;-77
2022/11/27 08:29:12;;;;;;;31.08;16.15;;;;;;;4.86;70.76;101230.56;10422740;28;20382;-76
2022/11/27 08:34:15;;;;;;;29.45;14.40;;;;;;;4.80;69.63;101223.72;10457118;28;20076;-75
2022/11/27 08:39:19;;;;;;;21.17;12.23;;;;;;;5.06;69.26;101222.59;10456978;28;20079;-76
2022/11/27 08:44:22;;;;;;;26.23;12.98;;;;;;;5.37;68.62;101225.66;10440226;28;20041;-77
2022/11/27 08:49:25;;;;;;;22.90;11.85;;;;;;;5.50;67.00;101222.38;10437302;28;20140;-76
2022/11/27 08:54:29;;;;;;;23.75;13.65;;;;;;;5.71;65.37;101206.31;10459077;28;20470;-77
2022/11/27 08:59:32;;;;;;;19.05;10.38;;;;;;;5.96;65.28;101203.31;10445254;28;20049;-77
2022/11/27 09:04:35;;;;;;;16.80;9.27;;;;;;;6.32;63.74;101205.13;10446563;28;20057;-77
2022/11/27 09:09:39;;;;;;;13.73;8.63;;;;;;;6.14;63.60;101188.19;10459658;28;20054;-77
2022/11/27 09:14:42;;;;;;;19.17;9.43;;;;;;;5.69;65.58;101184.19;10459555;28;20132;-77
2022/11/27 09:19:45;;;;;;;13.65;7.85;;;;;;;5.70;65.99;101185.91;10458035;28;20076;-76
2022/11/27 09:24:49;;;;;;;16.13;9.75;;;;;;;5.55;66.56;101182.19;10470045;28;20045;-76
2022/11/27 09:29:52;;;;;;;19.60;10.52;;;;;;;5.37;67.44;101183.03;10461124;28;20095;-77
2022/11/27 09:34:55;;;;;;;15.73;9.05;;;;;;;5.54;67.00;101171.56;10454912;28;20528;-77
2022/11/27 09:39:59;;;;;;;12.45;8.27;;;;;;;5.71;66.87;101164.50;10454073;28;20049;-77
2022/11/27 09:45:05;;;;;;;14.48;8.73;;;;;;;5.87;66.92;101150.41;10448109;28;20047;-76
2022/11/27 09:50:13;;;;;;;19.20;9.40;;;;;;;5.88;67.23;101158.34;10456575;28;20049;-77
2022/11/27 09:55:23;;;;;;;21.50;10.98;;;;;;;5.93;67.19;101150.13;10454436;28;20124;-76
2022/11/27 10:00:26;;;;;;;13.55;8.23;;;;;;;5.99;66.82;101146.31;10434581;28;20205;-76
2022/11/27 10:05:42;;;;;;;11.45;7.63;;;;;;;6.04;67.19;101144.28;10454093;28;20049;-77
2022/11/27 10:11:00;;;;;;;14.88;8.55;;;;;;;6.26;66.83;101131.56;10452722;28;20037;-76
2022/11/27 10:16:10;;;;;;;15.93;8.32;;;;;;;6.17;66.88;101132.03;10451938;28;20116;-76
2022/11/27 10:21:19;;;;;;;14.23;8.43;;;;;;;6.36;66.50;101114.16;10436683;28;20132;-77
2022/11/27 10:26:29;;;;;;;14.07;7.50;;;;;;;6.40;66.74;101118.38;10433285;28;20413;-77
2022/11/27 10:31:36;;;;;;;14.40;8.27;;;;;;;6.33;67.87;101110.75;10437413;28;20041;-76
2022/11/27 10:36:44;;;;;;;20.88;8.77;;;;;;;6.44;68.12;101100.38;10456422;28;20060;-75
2022/11/27 10:41:57;;;;;;;16.98;8.75;;;;;;;6.60;67.81;101092.44;10455072;28;20075;-77
2022/11/27 10:47:03;;;;;;;20.90;9.25;;;;;;;6.67;66.92;101087.66;10436829;28;20099;-77
2022/11/27 10:52:11;;;;;;;13.43;8.43;;;;;;;6.82;66.06;101092.16;10453019;28;20049;-75
2022/11/27 10:57:40;;;;;;;13.75;7.55;;;;;;;7.22;65.20;101090.88;10454607;28;20124;-78
2022/11/27 11:02:43;;;;;;;13.60;6.55;;;;;;;7.56;64.18;101078.25;10436798;28;20072;-75
2022/11/27 11:07:56;;;;;;;16.13;6.95;;;;;;;7.86;63.23;101072.06;10481664;23;20060;-75
2022/11/27 11:13:15;;;;;;;12.90;6.47;;;;;;;8.11;61.48;101074.16;10516437;28;20036;-76
2022/11/27 11:18:18;;;;;;;11.57;5.75;;;;;;;7.93;61.78;101076.13;10517121;28;20044;-76
2022/11/27 11:23:25;;;;;;;11.10;6.20;;;;;;;8.08;61.75;101077.03;10530601;28;20058;-78
2022/11/27 11:28:30;;;;;;;10.32;6.55;;;;;;;7.89;61.52;101064.72;10500330;28;20036;-78
2022/11/27 11:33:52;;;;;;;10.57;5.57;;;;;;;7.87;61.99;101047.03;10501560;28;20147;-77
2022/11/27 11:38:55;;;;;;;13.25;6.05;;;;;;;7.82;61.96;101049.16;10487816;28;20087;-78
2022/11/27 11:44:02;;;;;;;12.82;6.57;;;;;;;7.91;61.27;101044.09;10488499;28;20048;-77
2022/11/27 11:49:07;;;;;;;11.48;6.13;;;;;;;7.94;61.45;101033.22;10499479;28;20132;-79
2022/11/27 11:54:23;;;;;;;11.50;4.95;;;;;;;7.99;61.16;101027.59;10495213;28;20088;-78
2022/11/27 11:59:38;;;;;;;11.30;6.40;;;;;;;8.11;61.06;101015.28;10504627;28;20049;-79
2022/11/27 12:05:05;;;;;;;9.85;6.07;;;;;;;8.12;60.52;100999.16;10497158;28;20049;-79
2022/11/27 12:10:14;;;;;;;15.88;5.82;;;;;;;8.10;60.19;100987.66;10526765;28;20052;-79
2022/11/27 12:15:26;;;;;;;10.45;5.03;;;;;;;8.17;59.83;100988.13;10532355;28;20054;-79
2022/11/27 12:20:41;;;;;;;8.05;4.80;;;;;;;8.09;60.23;100980.59;10526238;28;20032;-79
2022/11/27 12:25:53;;;;;;;10.77;4.85;;;;;;;8.26;59.63;100965.31;10532202;28;20051;-79
2022/11/27 12:31:06;;;;;;;13.27;5.07;;;;;;;8.35;59.35;100959.38;10534051;28;20115;-79
2022/11/27 12:36:20;;;;;;;9.70;5.88;;;;;;;8.38;59.56;100962.72;10507607;28;20139;-79
2022/11/27 12:42:08;;;;;;;6.60;4.85;;;;;;;8.53;59.66;100952.91;10541328;28;20072;-79
2022/11/27 12:47:18;;;;;;;10.23;6.10;;;;;;;8.32;60.30;100938.16;10513275;28;20111;-77
2022/11/27 12:52:25;;;;;;;9.57;5.55;;;;;;;8.34;60.46;100930.91;10503456;28;20040;-79
2022/11/27 12:57:36;;;;;;;8.48;5.45;;;;;;;8.32;60.85;100927.47;10542053;28;20047;-80
2022/11/27 13:02:45;;;;;;;11.15;5.88;;;;;;;8.31;61.07;100925.72;10543589;28;20036;-78
2022/11/27 13:07:55;;;;;;;10.45;5.55;;;;;;;8.37;60.38;100910.16;10544197;28;20464;-80
2022/11/27 13:13:04;;;;;;;10.82;5.90;;;;;;;8.31;60.33;100906.97;10525460;28;20068;-80
2022/11/27 13:18:18;;;;;;;13.07;6.55;;;;;;;8.38;60.22;100897.63;10526063;28;20455;-79
2022/11/27 13:23:21;;;;;;;15.80;7.78;;;;;;;8.32;59.99;100879.28;10523026;28;20483;-78
2022/11/27 13:28:31;;;;;;;14.55;9.60;;;;;;;8.32;59.98;100871.25;10517174;28;20082;-80
2022/11/27 13:33:39;;;;;;;16.08;8.02;;;;;;;8.34;59.87;100874.69;10527508;28;20036;-79
2022/11/27 13:38:44;;;;;;;10.93;4.90;;;;;;;8.29;59.53;100858.91;10520550;28;20091;-78
2022/11/27 13:43:47;;;;;;;12.02;6.18;;;;;;;8.25;58.39;100851.16;10515248;28;20043;-80
2022/11/27 13:48:55;;;;;;;8.43;4.40;;;;;;;8.32;56.89;100848.00;10524475;28;20079;-78
2022/11/27 13:54:10;;;;;;;21.92;10.60;;;;;;;8.16;58.78;100841.91;10505416;28;20052;-79
2022/11/27 13:59:15;;;;;;;6.40;3.80;;;;;;;8.07;59.19;100840.69;10524536;28;20044;-79
2022/11/27 14:04:19;;;;;;;8.82;5.47;;;;;;;8.00;59.17;100823.28;10544214;28;20070;-79
2022/11/27 14:09:34;;;;;;;6.68;4.55;;;;;;;7.90;59.41;100798.09;10508788;28;20040;-79
2022/11/27 14:14:37;;;;;;;6.13;2.67;;;;;;;7.87;57.48;100796.47;10516384;28;20048;-80
2022/11/27 14:19:45;;;;;;;6.78;5.00;;;;;;;7.93;56.49;100789.88;10522999;28;20089;-80
2022/11/27 14:24:54;;;;;;;8.43;4.10;;;;;;;7.99;56.37;100781.47;10533897;28;20043;-79
2022/11/27 14:29:57;;;;;;;4.13;2.38;;;;;;;8.06;55.42;100769.38;10506855;28;20516;-79
2022/11/27 14:35:01;;;;;;;5.47;2.63;;;;;;;8.05;55.24;100770.34;10525099;28;20068;-80
2022/11/27 14:40:13;;;;;;;8.85;5.00;;;;;;;7.84;56.59;100761.03;10527284;28;20036;-80
2022/11/27 14:45:18;;;;;;;5.60;4.05;;;;;;;7.89;57.59;100756.25;10495902;28;20501;-80
2022/11/27 14:50:23;;;;;;;8.60;4.28;;;;;;;7.79;58.39;100758.66;10483842;28;20118;-80
2022/11/27 14:55:27;;;;;;;10.15;5.05;;;;;;;7.69;59.94;100752.16;10530827;28;20496;-80
2022/11/27 15:00:36;;;;;;;11.45;5.63;;;;;;;7.58;60.71;100743.97;10519036;28;20044;-78
2022/11/27 15:05:40;;;;;;;12.43;6.18;;;;;;;7.60;61.21;100748.25;10498977;28;20044;-79
2022/11/27 15:10:43;;;;;;;11.60;5.88;;;;;;;7.50;61.93;100736.41;10531505;28;20072;-80
2022/11/27 15:15:55;;;;;;;8.52;4.80;;;;;;;7.34;62.26;100730.31;10530022;28;20048;-79
2022/11/27 15:21:00;;;;;;;8.57;4.97;;;;;;;7.35;62.46;100707.97;10528827;28;20044;-78
2022/11/27 15:26:09;;;;;;;9.18;4.07;;;;;;;7.14;62.22;100700.34;10530230;28;20060;-79
2022/11/27 15:31:27;;;;;;;7.68;5.10;;;;;;;7.25;62.15;100697.84;10539833;28;20036;-79
2022/11/27 15:36:40;;;;;;;6.80;4.43;;;;;;;7.35;61.90;100708.84;10544228;28;20048;-80
2022/11/27 15:41:51;;;;;;;7.05;4.60;;;;;;;7.31;61.91;100699.28;10547864;28;20060;-78
2022/11/27 15:46:56;;;;;;;8.48;5.05;;;;;;;7.10;62.20;100703.28;10547862;28;20088;-78
2022/11/27 15:52:00;;;;;;;7.50;5.20;;;;;;;7.32;62.11;100702.81;10555172;28;20044;-79
2022/11/27 15:57:03;;;;;;;10.50;5.13;;;;;;;7.06;62.88;100683.94;10517957;28;20051;-78
2022/11/27 16:02:06;;;;;;;9.00;5.20;;;;;;;7.14;62.68;100695.00;10532048;28;20047;-77
2022/11/27 16:07:13;;;;;;;22.08;15.52;;;;;;;7.15;62.67;100683.34;10518889;28;20066;-79
2022/11/27 16:12:16;;;;;;;9.70;6.78;;;;;;;7.13;62.48;100679.94;10540989;28;20079;-79
2022/11/27 16:17:18;;;;;;;15.45;8.75;;;;;;;7.14;62.43;100670.09;10531226;28;20068;-79
2022/11/27 16:22:23;;;;;;;8.73;5.78;;;;;;;7.06;62.85;100654.53;10527967;28;20052;-77
2022/11/27 16:27:26;;;;;;;10.77;5.70;;;;;;;7.09;63.05;100649.00;10525444;28;20123;-78
2022/11/27 16:32:28;;;;;;;6.80;4.55;;;;;;;7.13;62.41;100652.34;10514169;28;20400;-78
2022/11/27 16:37:33;;;;;;;12.35;4.47;;;;;;;7.10;62.26;100647.19;10513111;28;20128;-78
2022/11/27 16:42:37;;;;;;;7.75;4.47;;;;;;;7.08;62.20;100638.44;10524828;28;20071;-78
2022/11/27 16:47:40;;;;;;;10.35;5.53;;;;;;;6.97;62.10;100629.25;10525801;28;20049;-78
2022/11/27 16:52:44;;;;;;;8.40;4.25;;;;;;;7.13;61.49;100653.22;10513622;28;20036;-78
2022/11/27 16:57:54;;;;;;;4.80;2.83;;;;;;;7.18;60.33;100640.41;10495744;28;20490;-77
2022/11/27 17:02:57;;;;;;;3.97;3.22;;;;;;;7.22;59.96;100623.25;10503440;28;20461;-78
2022/11/27 17:08:02;;;;;;;5.85;3.65;;;;;;;7.25;59.81;100619.50;10526317;28;20047;-76
2022/11/27 17:13:05;;;;;;;4.85;2.90;;;;;;;7.34;58.47;100618.91;10513205;28;20055;-77
2022/11/27 17:18:08;;;;;;;5.90;3.15;;;;;;;7.37;58.31;100608.03;10494991;28;20047;-77
2022/11/27 17:23:12;;;;;;;4.85;3.28;;;;;;;7.36;58.24;100611.66;10492418;28;20127;-76
2022/11/27 17:28:16;;;;;;;4.28;3.10;;;;;;;7.30;58.02;100598.72;10521896;28;20067;-76
2022/11/27 17:33:19;;;;;;;8.90;2.90;;;;;;;7.40;58.22;100589.13;10502543;28;20139;-76
2022/11/27 17:38:24;;;;;;;6.47;3.67;;;;;;;7.41;57.94;100584.66;10508588;28;20101;-78
2022/11/27 17:43:29;;;;;;;4.53;3.13;;;;;;;7.45;57.71;100584.34;10514075;28;20037;-76
2022/11/27 17:48:33;;;;;;;5.05;2.95;;;;;;;7.49;57.19;100593.91;10508678;28;20052;-77
2022/11/27 17:53:37;;;;;;;4.00;2.70;;;;;;;7.50;57.43;100594.75;10482714;28;20036;-77
2022/11/27 17:58:41;;;;;;;5.07;3.25;;;;;;;7.52;57.31;100575.94;10493118;28;20421;-75
2022/11/27 18:03:45;;;;;;;5.47;3.08;;;;;;;7.47;57.67;100584.25;10495091;28;20040;-77
2022/11/27 18:08:51;;;;;;;9.13;3.03;;;;;;;7.47;57.64;100582.44;10478421;28;20051;-77
2022/11/27 18:13:54;;;;;;;4.28;3.20;;;;;;;7.45;57.66;100573.66;10493435;28;20036;-76
2022/11/27 18:18:59;;;;;;;3.63;2.45;;;;;;;7.45;57.50;100564.78;10499618;28;20113;-75
2022/11/27 18:24:04;;;;;;;6.03;3.97;;;;;;;7.43;57.86;100569.34;10511410;28;20058;-76
2022/11/27 18:29:27;;;;;;;12.93;6.93;;;;;;;7.42;57.84;100562.31;10534826;28;20039;-78
2022/11/27 18:34:29;;;;;;;7.45;4.30;;;;;;;7.37;58.39;100551.91;10511387;28;20043;-77
2022/11/27 18:39:35;;;;;;;5.00;3.75;;;;;;;7.30;60.27;100542.59;10537308;28;20069;-78
2022/11/27 18:44:38;;;;;;;8.73;4.88;;;;;;;7.10;61.97;100541.19;10543819;28;20040;-79
2022/11/27 18:49:47;;;;;;;7.78;5.45;;;;;;;7.04;62.37;100544.25;10488292;28;20043;-78
2022/11/27 18:54:51;;;;;;;5.32;4.05;;;;;;;7.03;61.83;100527.38;10503115;28;20093;-77
2022/11/27 18:59:54;;;;;;;4.32;3.53;;;;;;;6.99;61.37;100527.66;10516230;28;20138;-77
2022/11/27 19:04:57;;;;;;;5.18;3.55;;;;;;;7.15;60.81;100531.06;10499788;28;20032;-76
2022/11/27 19:10:01;;;;;;;5.68;3.38;;;;;;;7.20;60.26;100517.41;10510835;28;20040;-76
2022/11/27 19:15:06;;;;;;;3.28;2.15;;;;;;;7.20;58.84;100520.94;10492496;28;20039;-76
2022/11/27 19:20:10;;;;;;;4.22;3.00;;;;;;;7.26;58.63;100507.16;10534122;28;20116;-77
2022/11/27 19:25:15;;;;;;;4.00;2.88;;;;;;;7.33;58.16;100507.66;10502530;28;20052;-78
2022/11/27 19:30:18;;;;;;;5.32;3.17;;;;;;;7.32;58.07;100503.25;10527262;28;20040;-78
2022/11/27 19:35:24;;;;;;;4.32;3.65;;;;;;;7.40;58.49;100500.94;10513236;28;20040;-78
2022/11/27 19:40:31;;;;;;;5.78;3.72;;;;;;;7.30;58.43;100498.97;10503513;28;20048;-78
2022/11/27 19:45:36;;;;;;;12.27;7.15;;;;;;;7.30;59.54;100491.81;10509796;28;20914;-77
2022/11/27 19:50:40;;;;;;;7.43;4.15;;;;;;;7.19;60.86;100487.19;10512448;28;20051;-79
2022/11/27 19:55:44;;;;;;;8.63;5.35;;;;;;;7.11;62.05;100477.94;10529597;28;20602;-80
2022/11/27 20:00:47;;;;;;;6.22;3.55;;;;;;;6.93;62.90;100479.97;10523312;28;20056;-79
2022/11/27 20:05:50;;;;;;;5.85;3.83;;;;;;;6.87;62.91;100477.69;10523894;28;20040;-78
2022/11/27 20:11:01;;;;;;;4.85;3.70;;;;;;;6.71;64.16;100470.63;10497991;28;20059;-78
2022/11/27 20:16:07;;;;;;;5.20;3.38;;;;;;;6.62;65.16;100458.72;10535590;28;20044;-77
2022/11/27 20:21:13;;;;;;;6.35;3.38;;;;;;;6.56;66.51;100448.47;10540668;28;20043;-78
2022/11/27 20:26:20;;;;;;;9.20;4.60;;;;;;;6.60;66.69;100457.13;10511307;28;20058;-78
2022/11/27 20:31:25;;;;;;;5.68;3.92;;;;;;;6.59;66.30;100450.94;10533505;28;20071;-77
2022/11/27 20:36:30;;;;;;;5.85;3.53;;;;;;;6.62;66.65;100457.88;10514778;28;20041;-78
2022/11/27 20:41:35;;;;;;;4.18;3.63;;;;;;;6.67;67.23;100453.13;10495043;28;20041;-77
2022/11/27 20:46:38;;;;;;;7.22;4.68;;;;;;;6.58;66.69;100441.22;10509759;28;20066;-79
2022/11/27 20:51:41;;;;;;;6.15;3.50;;;;;;;6.58;67.50;100446.56;10519512;28;20036;-77
2022/11/27 20:56:46;;;;;;;8.90;5.47;;;;;;;6.60;67.88;100444.63;10494160;28;20423;-78
2022/11/27 21:01:49;;;;;;;6.45;3.78;;;;;;;6.50;68.54;100432.84;10513365;28;20590;-77
2022/11/27 21:06:52;;;;;;;6.93;4.97;;;;;;;6.36;68.92;100425.72;10494162;28;20045;-77
2022/11/27 21:11:56;;;;;;;9.43;5.25;;;;;;;6.24;69.19;100420.28;10514923;28;20048;-79
2022/11/27 21:17:01;;;;;;;9.23;6.35;;;;;;;6.15;69.20;100408.38;10506288;28;20053;-78
2022/11/27 21:22:08;;;;;;;13.63;9.70;;;;;;;6.11;70.42;100404.16;10504117;28;20079;-79
2022/11/27 21:27:13;;;;;;;7.07;6.00;;;;;;;5.97;70.74;100388.16;10507222;28;20056;-79
2022/11/27 21:32:16;;;;;;;9.45;6.32;;;;;;;5.97;70.83;100389.00;10494339;28;20094;-77
2022/11/27 21:37:22;;;;;;;7.47;4.65;;;;;;;5.89;71.01;100364.63;10513151;28;20079;-78
2022/11/27 21:42:28;;;;;;;9.85;6.85;;;;;;;5.70;72.23;100330.25;10507603;28;20055;-78
2022/11/27 21:47:30;;;;;;;7.43;5.47;;;;;;;5.65;72.21;100293.25;10514694;28;20040;-78
2022/11/27 21:52:34;;;;;;;7.57;5.07;;;;;;;5.88;72.27;100274.94;10501789;28;20438;-77
2022/11/27 21:57:39;;;;;;;8.43;5.50;;;;;;;5.85;71.92;100284.00;10492520;28;20135;-79
2022/11/27 22:02:44;;;;;;;7.63;5.47;;;;;;;5.96;72.17;100286.00;10515353;28;20044;-77
2022/11/27 22:07:47;;;;;;;7.97;5.05;;;;;;;5.91;71.91;100278.28;10506092;28;20063;-78
2022/11/27 22:12:51;;;;;;;6.85;4.43;;;;;;;5.95;71.53;100268.25;10528320;28;20041;-77
2022/11/27 22:17:54;;;;;;;10.70;5.20;;;;;;;5.93;70.19;100295.03;10509917;28;20055;-78
2022/11/27 22:22:57;;;;;;;6.80;5.47;;;;;;;5.88;70.72;100286.47;10493111;28;20135;-77
2022/11/27 22:28:02;;;;;;;8.75;5.82;;;;;;;5.94;70.74;100288.75;10519563;28;20123;-78
2022/11/27 22:33:04;;;;;;;9.80;5.95;;;;;;;5.98;70.11;100273.44;10510620;28;20464;-77
2022/11/27 22:38:08;;;;;;;12.60;7.43;;;;;;;6.01;69.95;100262.56;10511287;28;20048;-78
2022/11/27 22:43:12;;;;;;;10.65;7.03;;;;;;;5.99;70.47;100266.28;10498134;28;20189;-78
2022/11/27 22:48:15;;;;;;;6.75;5.47;;;;;;;5.95;69.33;100242.47;10517938;28;20041;-78
2022/11/27 22:53:18;;;;;;;8.40;6.00;;;;;;;6.08;68.51;100266.53;10523399;28;20044;-79
2022/11/27 22:58:22;;;;;;;6.88;5.55;;;;;;;6.11;68.54;100257.47;10504282;28;20040;-79
2022/11/27 23:03:25;;;;;;;8.07;5.65;;;;;;;6.09;67.87;100268.25;10467962;28;20497;-78
2022/11/27 23:08:28;;;;;;;8.82;6.28;;;;;;;6.06;67.57;100270.25;10520413;28;20127;-79
2022/11/27 23:13:32;;;;;;;7.55;4.28;;;;;;;6.10;66.95;100261.09;10503104;28;20044;-79
2022/11/27 23:18:37;;;;;;;4.90;3.72;;;;;;;6.12;66.32;100237.88;10513445;28;20048;-78
2022/11/27 23:23:40;;;;;;;6.55;3.60;;;;;;;6.07;66.24;100219.50;10515116;28;20498;-79